createdAt,value
2023-03-06T04:01:00.826Z,23.50
2023-03-06T04:03:28.486Z,25.30
2023-03-06T04:05:57.896Z,26.27
2023-03-06T04:08:26.118Z,27.27
2023-03-06T04:10:54.494Z,25.80
2023-03-06T04:13:22.283Z,24.93
2023-03-06T04:15:51.565Z,27.10
2023-03-06T04:18:19.623Z,24.10
2023-03-06T04:20:47.506Z,28.27
2023-03-06T04:23:15.477Z,25.80
2023-03-06T04:25:42.985Z,25.80
2023-03-06T04:28:10.534Z,24.17
2023-03-06T04:30:37.946Z,26.43
2023-03-06T04:33:05.533Z,28.90
2023-03-06T04:35:32.772Z,24.73
2023-03-06T04:37:59.986Z,23.03
2023-03-06T04:40:29.850Z,24.00
2023-03-06T04:42:58.655Z,24.23
2023-03-06T04:45:27.389Z,26.20
2023-03-06T04:47:55.174Z,21.57
2023-03-06T04:50:24.068Z,22.13
2023-03-06T04:52:51.949Z,25.87
2023-03-06T04:55:19.352Z,22.67
2023-03-06T04:57:47.843Z,22.30
2023-03-06T05:00:24.046Z,20.77
2023-03-06T05:02:52.340Z,24.53
2023-03-06T05:05:19.739Z,25.03
2023-03-06T05:07:46.989Z,23.20
2023-03-06T05:10:16.733Z,20.63
2023-03-06T05:12:44.428Z,21.60
2023-03-06T05:15:12.538Z,21.73
2023-03-06T05:17:39.963Z,23.20
2023-03-06T05:20:09.717Z,22.30
2023-03-06T05:22:37.098Z,19.43
2023-03-06T05:25:04.964Z,25.60
2023-03-06T05:27:32.581Z,25.07
2023-03-06T05:29:59.969Z,22.17
2023-03-06T05:32:27.363Z,24.13
2023-03-06T05:34:54.753Z,27.00
2023-03-06T05:37:23.150Z,26.47
2023-03-06T05:39:51.237Z,25.70
2023-03-06T05:42:18.521Z,25.63
2023-03-06T05:44:45.946Z,23.00
2023-03-06T05:47:13.530Z,25.10
2023-03-06T05:49:41.071Z,23.47
2023-03-06T05:52:08.958Z,26.83
2023-03-06T05:54:37.236Z,23.40
2023-03-06T05:57:05.759Z,26.93
2023-03-06T05:59:33.333Z,25.47
2023-03-06T06:02:01.347Z,28.17
2023-03-06T06:04:29.772Z,24.83
2023-03-06T06:06:59.115Z,26.93
2023-03-06T06:09:27.652Z,29.97
2023-03-06T06:11:58.003Z,30.43
2023-03-06T06:14:25.581Z,26.57
2023-03-06T06:16:53.110Z,23.77
2023-03-06T06:19:21.761Z,27.90
2023-03-06T06:21:51.525Z,27.03
2023-03-06T06:24:21.497Z,25.60
2023-03-06T06:26:53.016Z,27.77
2023-03-06T06:29:21.091Z,24.47
2023-03-06T06:31:48.642Z,27.93
2023-03-06T06:34:15.869Z,27.27
2023-03-06T06:36:43.124Z,29.90
2023-03-06T06:39:13.616Z,26.80
2023-03-06T06:41:59.513Z,25.10
2023-03-06T06:44:28.302Z,29.37
2023-03-06T06:49:42.531Z,31.00
2023-03-06T06:52:10.701Z,27.47
2023-03-06T06:54:37.914Z,28.43
2023-03-06T06:57:05.198Z,30.77
2023-03-06T06:59:32.361Z,27.43
2023-03-06T07:01:59.633Z,28.83
2023-03-06T07:04:26.865Z,26.77
2023-03-06T07:06:56.353Z,28.97
2023-03-06T07:09:23.719Z,32.40
2023-03-06T07:11:51.255Z,31.60
2023-03-06T07:14:18.613Z,33.93
2023-03-06T07:16:45.791Z,32.67
2023-03-06T07:19:13.969Z,30.33
2023-03-06T07:21:41.428Z,30.40
2023-03-06T07:24:08.795Z,30.07
2023-03-06T07:26:36.061Z,32.23
2023-03-06T07:29:04.250Z,28.73
2023-03-06T07:31:31.543Z,32.00
2023-03-06T07:33:58.778Z,27.83
2023-03-06T07:36:25.989Z,31.47
2023-03-06T07:38:53.135Z,31.73
2023-03-06T07:41:22.475Z,29.37
2023-03-06T07:43:50.299Z,32.30
2023-03-06T07:46:17.805Z,30.40
2023-03-06T07:48:45.325Z,28.80
2023-03-06T07:51:18.231Z,35.93
2023-03-06T07:53:45.961Z,35.90
2023-03-06T07:56:13.950Z,34.13
2023-03-06T07:58:44.019Z,32.30
2023-03-06T08:01:19.972Z,32.40
2023-03-06T08:03:49.877Z,35.83
2023-03-06T08:06:22.644Z,38.73
2023-03-06T08:08:51.153Z,38.37
2023-03-06T08:11:20.967Z,36.00
2023-03-06T08:13:49.051Z,38.17
2023-03-06T08:16:17.591Z,35.90
2023-03-06T08:18:46.368Z,45.07
2023-03-06T08:21:17.025Z,41.83
2023-03-06T08:23:45.891Z,40.70
2023-03-06T08:26:33.914Z,41.27
2023-03-06T08:29:02.023Z,40.27
2023-03-06T08:31:34.992Z,39.83
2023-03-06T08:34:04.950Z,37.33
2023-03-06T08:36:32.160Z,36.57
2023-03-06T08:38:59.942Z,38.57
2023-03-06T08:41:27.822Z,36.10
2023-03-06T08:43:55.057Z,42.00
2023-03-06T08:46:24.542Z,35.53
2023-03-06T08:48:52.411Z,37.33
2023-03-06T08:51:21.019Z,36.47
2023-03-06T08:53:49.338Z,35.70
2023-03-06T08:56:42.608Z,34.47
2023-03-06T08:59:12.045Z,36.47
2023-03-06T09:01:39.496Z,38.13
2023-03-06T09:04:10.554Z,37.47
2023-03-06T09:06:41.345Z,39.80
2023-03-06T09:09:09.595Z,39.40
2023-03-06T09:11:37.185Z,41.80
2023-03-06T09:14:05.528Z,43.87
2023-03-06T09:16:33.209Z,38.33
2023-03-06T09:19:00.503Z,38.67
2023-03-06T09:21:28.648Z,41.93
2023-03-06T09:23:56.283Z,41.97
2023-03-06T09:26:32.794Z,42.20
2023-03-06T09:29:07.546Z,41.67
2023-03-06T09:31:34.835Z,37.83
2023-03-06T09:34:02.122Z,37.87
2023-03-06T09:36:29.349Z,39.93
2023-03-06T09:38:56.526Z,39.60
2023-03-06T09:41:33.605Z,39.63
2023-03-06T09:44:08.598Z,42.40
2023-03-06T09:46:47.251Z,40.27
2023-03-06T09:49:38.183Z,41.70
2023-03-06T09:53:02.014Z,36.23
2023-03-06T09:55:58.117Z,35.67
2023-03-06T09:58:32.356Z,36.00
2023-03-06T10:01:24.367Z,37.50
2023-03-06T10:04:18.472Z,41.00
2023-03-06T10:06:50.262Z,39.83
2023-03-06T10:09:24.225Z,33.60
2023-03-06T10:12:00.628Z,37.60
2023-03-06T10:14:39.668Z,36.57
2023-03-06T10:17:17.783Z,35.13
2023-03-06T10:19:47.548Z,31.70
2023-03-06T10:22:27.133Z,34.47
2023-03-06T10:25:18.916Z,31.23
2023-03-06T10:28:12.789Z,36.37
2023-03-06T10:30:43.020Z,39.97
2023-03-06T10:33:26.541Z,34.33
2023-03-06T10:35:55.805Z,37.60
2023-03-06T10:38:31.539Z,36.73
2023-03-06T10:41:16.727Z,42.60
2023-03-06T10:44:04.181Z,35.27
2023-03-06T10:46:37.193Z,32.83
2023-03-06T10:49:24.650Z,40.80
2023-03-06T10:52:02.529Z,36.33
2023-03-06T10:54:33.315Z,36.77
2023-03-06T10:57:30.728Z,40.80
2023-03-06T11:00:00.849Z,36.10
2023-03-06T11:02:38.386Z,38.43
2023-03-06T11:05:07.039Z,34.00
2023-03-06T11:07:35.669Z,35.50
2023-03-06T11:10:20.467Z,34.83
2023-03-06T11:13:21.153Z,32.40
2023-03-06T11:15:57.384Z,31.10
2023-03-06T11:18:34.796Z,33.87
2023-03-06T11:21:07.164Z,31.13
2023-03-06T11:23:44.280Z,32.43
2023-03-06T11:26:17.484Z,27.37
2023-03-06T11:29:19.017Z,27.33
2023-03-06T11:31:53.019Z,26.97
2023-03-06T11:34:50.978Z,23.93
2023-03-06T11:37:29.399Z,24.93
2023-03-06T11:40:11.762Z,22.70
2023-03-06T11:43:06.054Z,23.90
2023-03-06T11:45:58.229Z,22.83
2023-03-06T11:48:35.442Z,25.73
2023-03-06T11:51:11.470Z,19.63
2023-03-06T11:53:39.884Z,20.40
2023-03-06T11:56:15.792Z,18.80
2023-03-06T11:59:12.529Z,21.07
2023-03-06T12:01:58.215Z,16.77
2023-03-06T12:04:39.737Z,18.23
2023-03-06T12:07:28.501Z,17.03
2023-03-06T12:10:27.677Z,19.00
2023-03-06T12:16:12.329Z,19.37
2023-03-06T12:18:54.836Z,14.70
2023-03-06T12:21:45.342Z,20.53
2023-03-06T12:25:03.992Z,19.30
2023-03-06T12:27:58.781Z,16.27
2023-03-06T12:31:01.885Z,17.00
2023-03-06T12:33:42.643Z,16.97
2023-03-06T12:36:33.087Z,16.03
2023-03-06T12:39:14.904Z,20.57
2023-03-06T12:41:59.856Z,18.63
2023-03-06T12:44:55.546Z,31.43
2023-03-06T12:47:27.949Z,16.53
2023-03-06T12:49:59.327Z,20.67
2023-03-06T12:52:30.744Z,20.20
2023-03-06T12:55:01.237Z,17.30
2023-03-06T12:57:29.778Z,19.27
2023-03-06T12:59:56.979Z,18.48
2023-03-06T13:02:36.075Z,19.57
2023-03-06T13:05:39.262Z,18.40
2023-03-06T13:08:35.649Z,19.57
2023-03-06T13:11:23.745Z,16.73
2023-03-06T13:13:51.098Z,16.53
2023-03-06T13:16:32.957Z,17.43
2023-03-06T13:19:19.423Z,17.27
2023-03-06T13:21:55.891Z,17.83
2023-03-06T13:24:34.577Z,18.60
2023-03-06T13:27:07.344Z,17.53
2023-03-06T13:29:37.228Z,18.23
2023-03-06T13:32:06.109Z,22.70
2023-03-06T13:34:37.730Z,22.57
2023-03-06T13:37:13.897Z,18.27
2023-03-06T13:39:56.670Z,16.60
2023-03-06T13:42:36.032Z,16.33
2023-03-06T13:45:13.839Z,17.13
2023-03-06T13:48:24.544Z,17.20
2023-03-06T13:50:49.601Z,16.63
2023-03-06T13:53:37.819Z,16.57
2023-03-06T13:56:10.701Z,17.90
2023-03-06T13:59:15.238Z,16.23
2023-03-06T14:02:06.729Z,16.23
2023-03-06T14:04:46.025Z,18.53
2023-03-06T14:07:23.040Z,16.83
2023-03-06T14:10:08.153Z,15.50
2023-03-06T14:12:48.474Z,16.40
2023-03-06T14:15:24.973Z,19.27
2023-03-06T14:18:02.702Z,13.73
2023-03-06T14:20:43.268Z,15.53
2023-03-06T14:23:26.927Z,15.63
2023-03-06T14:26:20.194Z,16.17
2023-03-06T14:28:53.213Z,15.30
2023-03-06T14:31:25.798Z,14.33
2023-03-06T14:33:56.427Z,14.07
2023-03-06T14:36:30.176Z,16.53
2023-03-06T14:39:01.187Z,17.27
2023-03-06T14:41:34.650Z,15.23
2023-03-06T14:44:26.393Z,13.97
2023-03-06T14:47:10.964Z,15.70
2023-03-06T14:49:38.209Z,17.27
2023-03-06T14:52:05.436Z,18.60
2023-03-06T14:54:37.003Z,22.47
2023-03-06T14:57:13.470Z,17.87
2023-03-06T14:59:53.012Z,19.43
2023-03-06T15:02:25.739Z,18.83
2023-03-06T15:05:19.997Z,18.93
2023-03-06T15:07:47.923Z,21.97
2023-03-06T15:10:34.943Z,15.77
2023-03-06T15:13:09.160Z,16.40
2023-03-06T15:15:36.437Z,18.00
2023-03-06T15:18:23.649Z,18.17
2023-03-06T15:20:54.414Z,18.50
2023-03-06T15:23:36.920Z,18.27
2023-03-06T15:26:29.049Z,17.00
2023-03-06T15:29:06.987Z,16.83
2023-03-06T15:31:43.978Z,19.93
2023-03-06T15:34:11.137Z,19.23
2023-03-06T15:36:49.208Z,21.83
2023-03-06T15:39:38.799Z,16.90
2023-03-06T15:42:19.022Z,19.17
2023-03-06T15:44:58.940Z,14.77
2023-03-06T15:47:26.193Z,19.60
2023-03-06T15:49:53.717Z,18.77
2023-03-06T15:52:22.031Z,18.50
2023-03-06T15:54:49.640Z,18.83
2023-03-06T15:57:22.186Z,19.10
2023-03-06T15:59:50.145Z,22.20
2023-03-06T16:02:19.737Z,17.87
2023-03-06T16:04:47.093Z,20.17
2023-03-06T16:07:15.129Z,20.10
2023-03-06T16:09:43.305Z,19.57
2023-03-06T16:12:19.486Z,17.97
2023-03-06T16:14:47.821Z,19.00
2023-03-06T16:17:15.541Z,19.00
2023-03-06T16:19:43.301Z,16.70
2023-03-06T16:22:10.816Z,17.33
2023-03-06T16:24:38.038Z,17.03
2023-03-06T16:27:06.866Z,18.83
2023-03-06T16:29:35.117Z,21.13
2023-03-06T16:32:03.199Z,22.17
2023-03-06T16:34:30.460Z,17.97
2023-03-06T16:36:58.081Z,18.13
2023-03-06T16:39:25.313Z,15.37
2023-03-06T16:41:52.683Z,17.33
2023-03-06T16:44:20.580Z,18.43
2023-03-06T16:46:49.974Z,18.33
2023-03-06T16:49:23.003Z,18.70
2023-03-06T16:51:51.362Z,20.40
2023-03-06T16:54:19.050Z,17.17
2023-03-06T16:56:46.557Z,17.13
2023-03-06T16:59:13.822Z,16.70
2023-03-06T17:01:43.096Z,16.67
2023-03-06T17:04:10.901Z,17.00
2023-03-06T17:06:39.182Z,14.97
2023-03-06T17:09:06.917Z,18.43
2023-03-06T17:11:38.466Z,17.67
2023-03-06T17:14:06.829Z,19.33
2023-03-06T17:16:37.046Z,20.23
2023-03-06T17:19:04.261Z,19.17
2023-03-06T17:21:31.494Z,17.07
2023-03-06T17:24:01.569Z,18.30
2023-03-06T17:26:28.762Z,16.57
2023-03-06T17:28:56.182Z,22.40
2023-03-06T17:31:27.926Z,29.63
2023-03-06T17:33:59.112Z,27.83
2023-03-06T17:36:28.015Z,20.30
2023-03-06T17:38:57.023Z,17.63
2023-03-06T17:41:24.816Z,17.37
2023-03-06T17:43:54.581Z,17.03
2023-03-06T17:46:22.101Z,17.13
2023-03-06T17:48:49.466Z,16.57
2023-03-06T17:51:16.705Z,19.63
2023-03-06T17:53:43.921Z,23.63
2023-03-06T17:56:13.494Z,18.23
2023-03-06T17:58:40.814Z,16.13
2023-03-06T18:01:28.446Z,16.93
2023-03-06T18:03:56.314Z,19.27
2023-03-06T18:06:24.811Z,17.30
2023-03-06T18:08:53.051Z,13.90
2023-03-06T18:11:20.997Z,16.17
2023-03-06T18:13:48.942Z,17.23
2023-03-06T18:16:18.989Z,17.07
2023-03-06T18:18:46.886Z,16.07
2023-03-06T18:21:16.131Z,15.53
2023-03-06T18:23:43.473Z,18.03
2023-03-06T18:26:12.258Z,17.90
2023-03-06T18:28:42.518Z,17.27
2023-03-06T18:31:26.185Z,14.73
2023-03-06T18:33:56.014Z,19.33
2023-03-06T18:36:25.495Z,16.33
2023-03-06T18:38:52.836Z,17.93
2023-03-06T18:41:20.838Z,17.83
2023-03-06T18:43:55.659Z,18.40
2023-03-06T18:46:23.801Z,19.20
2023-03-06T18:48:51.033Z,19.27
2023-03-06T18:51:19.358Z,17.13
2023-03-06T18:53:46.996Z,19.97
2023-03-06T18:56:19.800Z,18.70
2023-03-06T18:58:48.193Z,22.87
2023-03-06T19:01:15.440Z,20.10
2023-03-06T19:03:43.375Z,18.03
2023-03-06T19:06:13.392Z,28.60
2023-03-06T19:08:41.239Z,30.93
2023-03-06T19:11:14.293Z,32.77
2023-03-06T19:13:41.745Z,25.17
2023-03-06T19:16:09.702Z,21.07
2023-03-06T19:18:36.973Z,26.50
2023-03-06T19:21:19.009Z,21.73
2023-03-06T19:23:46.664Z,25.20
2023-03-06T19:26:14.415Z,20.73
2023-03-06T19:28:42.874Z,22.00
2023-03-06T19:31:14.197Z,21.83
2023-03-06T19:33:42.659Z,19.07
2023-03-06T19:36:12.550Z,17.77
2023-03-06T19:38:40.092Z,20.30
2023-03-06T19:41:13.281Z,21.40
2023-03-06T19:43:41.779Z,21.87
2023-03-06T19:46:15.501Z,21.17
2023-03-06T19:48:43.285Z,20.00
2023-03-06T19:51:10.633Z,24.63
2023-03-06T19:53:38.863Z,20.20
2023-03-06T19:56:13.410Z,23.50
2023-03-06T19:58:40.708Z,18.93
2023-03-06T20:01:11.202Z,23.20
2023-03-06T20:03:38.905Z,21.73
2023-03-06T20:06:09.109Z,21.83
2023-03-06T20:08:37.160Z,21.97
2023-03-06T20:11:04.856Z,24.80
2023-03-06T20:13:32.038Z,22.00
2023-03-06T20:16:02.912Z,25.80
2023-03-06T20:18:30.265Z,24.03
2023-03-06T20:21:01.795Z,22.27
2023-03-06T20:23:30.130Z,18.07
2023-03-06T20:26:05.927Z,22.83
2023-03-06T20:28:33.852Z,22.67
2023-03-06T20:31:09.693Z,20.73
2023-03-06T20:33:37.084Z,21.10
2023-03-06T20:36:04.632Z,19.90
2023-03-06T20:38:31.832Z,20.53
2023-03-06T20:40:59.723Z,19.67
2023-03-06T20:43:26.934Z,19.33
2023-03-06T20:46:02.495Z,18.37
2023-03-06T20:48:30.256Z,16.63
2023-03-06T20:51:20.581Z,18.30
2023-03-06T20:53:49.521Z,17.80
2023-03-06T20:56:19.280Z,21.07
2023-03-06T20:58:46.626Z,18.30
2023-03-06T21:01:25.557Z,18.70
2023-03-06T21:03:53.665Z,20.90
2023-03-06T21:06:21.160Z,18.43
2023-03-06T21:08:48.578Z,17.90
2023-03-06T21:11:16.710Z,16.60
2023-03-06T21:13:44.199Z,17.63
2023-03-06T21:16:14.408Z,17.97
2023-03-06T21:18:42.026Z,17.13
2023-03-06T21:21:14.661Z,16.13
2023-03-06T21:23:42.201Z,16.47
2023-03-06T21:26:17.709Z,16.50
2023-03-06T21:28:45.402Z,16.73
2023-03-06T21:31:14.270Z,15.33
2023-03-06T21:33:42.033Z,19.67
2023-03-06T21:36:09.904Z,16.67
2023-03-06T21:38:37.544Z,17.80
2023-03-06T21:41:10.463Z,15.13
2023-03-06T21:43:37.819Z,12.53
2023-03-06T21:46:05.456Z,13.83
2023-03-06T21:48:32.951Z,16.13
2023-03-06T21:51:11.805Z,16.63
2023-03-06T21:53:42.101Z,14.60
2023-03-06T21:56:10.435Z,17.30
2023-03-06T21:58:37.823Z,16.70
